• Join FlightAware (Why Join?)
  • Login
  • US Flag 
11:19AM EST


 

Airport Tracker/Info


-or-


 

Live Flight TrackerFlight Track Log ✈ DAL1515 ✈ 06-Jul-2013 ✈ KATL - KALB

Flight Track Log - Related Links

Times and Time Zones

All times are in EDT time to prevent confusion due to time zone crossing. See the DAL1515 flight status page for this flight to view local times or setup timezone preferences in your user account.

Time Position Orientation Groundspeed Altitude Reporting Facility
EDT Latitude Longitude Course Direction KTS MPH feet Rate Location/Type
09:17PM 41.0062 -76.1532 39° Northeast  Level Estimated
09:18PM 41.0178 -76.1382 44° Northeast  Level Estimated
09:19PM 41.0740 -76.0653 44° Northeast  Level Estimated
09:20PM 41.1302 -75.9922 44° Northeast  Level Estimated
09:21PM 41.1863 -75.9190 44° Northeast  Level Estimated
09:22PM 41.2424 -75.8457 45° Northeast  Level Estimated
09:23PM 41.2984 -75.7723 45° Northeast  Level Estimated
09:24PM 41.3543 -75.6987 45° Northeast  Level Estimated
09:25PM 41.4103 -75.6251 45° Northeast  Level Estimated
09:26PM 41.4661 -75.5512 45° Northeast  Level Estimated
09:27PM 41.5220 -75.4773 45° Northeast  Level Estimated
09:28PM 41.5778 -75.4032 45° Northeast  Level Estimated
09:29PM 41.6335 -75.3290 45° Northeast  Level Estimated
09:30PM 41.6892 -75.2547 45° Northeast  Level Estimated
09:31PM 41.7448 -75.1803 45° Northeast  Level Estimated
09:32PM 41.8004 -75.1057 45° Northeast  Level Estimated
09:33PM 41.8560 -75.0310 45° Northeast  Level Estimated
09:34PM 41.9115 -74.9561 45° Northeast  Level Estimated
09:35PM 41.9669 -74.8811 45° Northeast  Level Estimated
09:36PM 42.0223 -74.8061 45° Northeast  Level Estimated
09:37PM 42.0777 -74.7308 45° Northeast  Level Estimated
09:38PM 42.1330 -74.6554 45° Northeast  Level Estimated
09:39PM 42.1882 -74.5799 45° Northeast  Level Estimated
09:40PM 42.2434 -74.5043 45° Northeast  Level Estimated
09:41PM 42.2986 -74.4286 45° Northeast  Level Estimated
09:42PM 42.3537 -74.3527 45° Northeast  Level Estimated
09:43PM 42.4087 -74.2766 46° Northeast  Level Estimated
09:44PM 42.4637 -74.2005 46° Northeast  Level Estimated
09:45PM 42.5187 -74.1242 46° Northeast  Level Estimated
09:46PM 42.5736 -74.0478 46° Northeast  Level Estimated
09:47PM 42.6284 -73.9712 46° Northeast  Level Estimated
09:48PM 42.6832 -73.8945 46° Northeast  Level Estimated
09:49PM 42.7380 -73.8176 46° Northeast  Level Estimated
09:50PM 42.7491 -73.8020 46° Northeast  Level Estimated
09:51PM 42.7491 -73.8020 304° West  Level Estimated
09:52PM 42.7491 -73.8020 304° West  Level Estimated
09:53PM 42.7491 -73.8020 304° West  Level Estimated
09:54PM 42.7491 -73.8020 304° West  Level Estimated
09:55PM 42.7491 -73.8020 304° West  Level Estimated
09:56PM 42.7491 -73.8020 304° West  Level Estimated
09:57PM 42.7491 -73.8020 304° West  Level Estimated
09:58PM 42.7491 -73.8020 304° West  Level Estimated
09:59PM 42.7491 -73.8020 304° West  Level Estimated
10:00PM 42.7491 -73.8020 304° West  Level Estimated
10:01PM 42.7491 -73.8020 304° West  Level Estimated
10:02PM 42.7491 -73.8020 304° West  Level Estimated
10:03PM 42.7491 -73.8020 304° West  Level Estimated
10:04PM 42.7491 -73.8020 304° West  Level Estimated
10:05PM 42.7491 -73.8020 304° West  Level Estimated
10:06PM 42.7491 -73.8020 304° West  Level Estimated
10:07PM 42.7491 -73.8020 304° West  Level Estimated
10:08PM 42.7491 -73.8020 304° West  Level Estimated
10:09PM 42.7491 -73.8020 304° West  Level Estimated
10:10PM 42.7491 -73.8020 304° West  Level Estimated
10:11PM 42.7491 -73.8020 304° West  Level Estimated
10:12PM 42.7491 -73.8020 304° West  Level Estimated
10:13PM 42.7491 -73.8020 304° West  Level Estimated
10:14PM 42.7491 -73.8020 304° West  Level Estimated
10:15PM 42.7491 -73.8020 304° West  Level Estimated
10:16PM 42.7491 -73.8020 304° West  Level Estimated
10:17PM 42.7491 -73.8020 304° West  Level Estimated
10:18PM 42.7491 -73.8020 304° West  Level Estimated
10:19PM 42.7491 -73.8020 304° West  Level Estimated
10:20PM 42.7491 -73.8020 304° West  Level Estimated
10:21PM 42.7491 -73.8020 304° West  Level Estimated
10:22PM 42.7491 -73.8020 304° West  Level Estimated
10:23PM 42.7491 -73.8020 304° West  Level Estimated
10:24PM 42.7491 -73.8020 304° West  Level Estimated
10:25PM 42.7491 -73.8020 304° West  Level Estimated
10:26PM 42.7491 -73.8020 304° West  Level Estimated
10:27PM 42.7491 -73.8020 304° West  Level Estimated
10:28PM 42.7491 -73.8020 304° West  Level Estimated
10:29PM 42.7491 -73.8020 304° West  Level Estimated
10:30PM 42.7491 -73.8020 304° West  Level Estimated
10:31PM 42.7491 -73.8020 304° West  Level Estimated
10:32PM 42.7491 -73.8020 304° West  Level Estimated
10:33PM 42.7491 -73.8020 304° West  Level Estimated
10:34PM 42.7491 -73.8020 304° West  Level Estimated
10:35PM 42.7491 -73.8020 304° West  Level Estimated
10:36PM 42.7491 -73.8020 304° West  Level Estimated
10:37PM 42.7491 -73.8020 304° West  Level Estimated
10:38PM 42.7491 -73.8020 304° West  Level Estimated
10:39PM 42.7491 -73.8020 304° West  Level Estimated
10:40PM 42.7491 -73.8020 304° West  Level Estimated
10:41PM 42.7491 -73.8020 304° West  Level Estimated
10:42PM 42.7491 -73.8020 304° West  Level Estimated
10:43PM 42.7491 -73.8020 304° West  Level Estimated
10:44PM 42.7491 -73.8020 304° West  Level Estimated
10:45PM 42.7491 -73.8020 304° West  Level Estimated
10:46PM 42.7491 -73.8020 304° West  Level Estimated
10:47PM 42.7491 -73.8020 304° West  Level Estimated
10:48PM 42.7491 -73.8020 304° West  Level Estimated
10:49PM 42.7491 -73.8020 304° West  Level Estimated
10:50PM 42.7491 -73.8020 304° West  Level Estimated
10:51PM 42.7491 -73.8020 304° West  Level Estimated
10:52PM 42.7491 -73.8020 304° West  Level Estimated
10:53PM 42.7491 -73.8020 304° West  Level Estimated
10:54PM 42.7491 -73.8020 304° West  Level Estimated
10:55PM 42.7491 -73.8020 304° West  Level Estimated
10:56PM 42.7491 -73.8020 304° West  Level Estimated
10:57PM 42.7491 -73.8020 304° West  Level Estimated
10:58PM 42.7491 -73.8020 304° West  Level Estimated
10:59PM 42.7491 -73.8020 304° West  Level Estimated
11:00PM 42.7491 -73.8020 304° West  Level Estimated
11:01PM 42.7491 -73.8020 304° West  Level Estimated
11:02PM 42.7491 -73.8020 304° West  Level Estimated
11:03PM 42.7491 -73.8020 304° West  Level Estimated
11:04PM 42.7491 -73.8020 304° West  Level Estimated
11:05PM 42.7491 -73.8020 304° West  Level Estimated
11:06PM 42.7491 -73.8020 304° West  Level Estimated
11:07PM 42.7491 -73.8020 304° West  Level Estimated
11:08PM 42.7491 -73.8020 304° West  Level Estimated
11:09PM 42.7491 -73.8020 304° West  Level Estimated
11:10PM 42.7491 -73.8020 304° West  Level Estimated
11:11PM 42.7491 -73.8020 304° West  Level Estimated
11:12PM 42.7491 -73.8020 304° West  Level Estimated
11:13PM 42.7491 -73.8020 304° West  Level Estimated
11:14PM 42.7491 -73.8020 304° West  Level Estimated
11:15PM 42.7491 -73.8020 304° West  Level Estimated
11:16PM 42.7491 -73.8020 304° West  Level Estimated
11:17PM 42.7491 -73.8020 304° West  Level Estimated
11:18PM 42.7491 -73.8020 304° West  Level Estimated
11:19PM 42.7491 -73.8020 304° West  Level Estimated
11:20PM 42.7491 -73.8020 304° West  Level Estimated
11:21PM 42.7491 -73.8020 304° West  Level Estimated
11:22PM 42.7491 -73.8020 304° West  Level Estimated
11:23PM 42.7491 -73.8020 304° West  Level Estimated
11:24PM 42.7491 -73.8020 304° West  Level Estimated
11:25PM 42.7491 -73.8020 304° West  Level Estimated
11:26PM 42.7491 -73.8020 304° West  Level Estimated
11:27PM 42.7491 -73.8020 304° West  Level Estimated
11:28PM 42.7491 -73.8020 304° West  Level Estimated
11:29PM 42.7491 -73.8020 304° West  Level Estimated
11:30PM 42.7491 -73.8020 304° West  Level Estimated
11:31PM 42.7491 -73.8020 304° West  Level Estimated
11:32PM 42.7491 -73.8020 304° West  Level Estimated
11:33PM 42.7491 -73.8020 304° West  Level Estimated
11:34PM 42.7491 -73.8020 304° West  Level Estimated
11:35PM 42.7491 -73.8020 304° West  Level Estimated
11:36PM 42.7491 -73.8020 304° West  Level Estimated
11:37PM 42.7491 -73.8020 304° West  Level Estimated
11:38PM 42.7491 -73.8020 304° West  Level Estimated
11:39PM 42.7491 -73.8020 304° West  Level Estimated
11:40PM 42.7491 -73.8020 304° West  Level Estimated
11:41PM 42.7491 -73.8020 304° West  Level Estimated
11:42PM 42.7491 -73.8020 304° West  Level Estimated
11:43PM 42.7491 -73.8020 304° West  Level Estimated
11:44PM 42.7491 -73.8020 304° West  Level Estimated
11:45PM 42.7491 -73.8020 304° West  Level Estimated
11:46PM 42.7491 -73.8020 304° West  Level Estimated
11:47PM 42.7491 -73.8020 304° West  Level Estimated
11:48PM 42.7491 -73.8020 304° West  Level Estimated
11:49PM 42.7491 -73.8020 304° West  Level Estimated
11:50PM 42.7491 -73.8020 304° West  Level Estimated
11:51PM 42.7491 -73.8020 304° West  Level Estimated
11:52PM 42.7491 -73.8020 304° West  Level Estimated
11:53PM 42.7491 -73.8020 304° West  Level Estimated
11:54PM 42.7491 -73.8020 304° West  Level Estimated
11:55PM 42.7491 -73.8020 304° West  Level Estimated
11:56PM 42.7491 -73.8020 304° West  Level Estimated
11:57PM 42.7491 -73.8020 304° West  Level Estimated
11:58PM 42.7491 -73.8020 304° West  Level Estimated
11:59PM 42.7491 -73.8020 304° West  Level Estimated
12:00AM 42.7491 -73.8020 304° West  Level Estimated
12:01AM 42.7491 -73.8020 304° West  Level Estimated
12:02AM 42.7491 -73.8020 304° West  Level Estimated
12:03AM 42.7491 -73.8020 304° West  Level Estimated
12:04AM 42.7491 -73.8020 304° West  Level Estimated
12:05AM 42.7491 -73.8020 304° West  Level Estimated
12:06AM 42.7491 -73.8020 304° West  Level Estimated